Time;durP1;ratioP1;P1;durP2;ratioP2;P2;SDS_P1;SDS_P2;PMS_P1;PMS_P2;Temp;Humidity;BMP_temperature;BMP_pressure;BME280_temperature;BME280_humidity;BME280_pressure;Samples;Min_cycle;Max_cycle;Signal;HPM_P1;HPM_P2
2023/10/21 00:00:21;;;;;;;6.97;1.48;;;13.80;99.90;;;;;;5032056;28;20515;-58
2023/10/21 00:02:46;;;;;;;4.72;0.95;;;13.80;99.90;;;;;;5032042;28;20503;-55
2023/10/21 00:05:12;;;;;;;6.65;1.48;;;13.80;99.90;;;;;;5031855;28;20021;-52
2023/10/21 00:07:37;;;;;;;6.20;1.40;;;13.80;99.90;;;;;;5031794;28;20036;-56
2023/10/21 00:10:06;;;;;;;7.65;1.52;;;13.80;99.90;;;;;;5031954;28;20022;-54
2023/10/21 00:12:33;;;;;;;9.00;1.48;;;13.90;99.90;;;;;;5031897;28;20037;-58
2023/10/21 00:14:59;;;;;;;6.47;1.27;;;14.00;99.90;;;;;;5031781;28;20079;-58
2023/10/21 00:17:28;;;;;;;7.53;1.38;;;15.10;99.90;;;;;;5031546;28;20037;-55
2023/10/21 00:19:54;;;;;;;5.93;2.28;;;16.80;99.90;;;;;;5031609;28;20053;-56
2023/10/21 00:22:19;;;;;;;10.95;1.55;;;14.10;99.90;;;;;;5031785;28;20048;-49
2023/10/21 00:24:45;;;;;;;4.43;0.98;;;14.10;99.90;;;;;;5031643;28;20025;-50
2023/10/21 00:27:10;;;;;;;9.57;1.05;;;14.00;99.90;;;;;;5031563;28;20021;-55
2023/10/21 00:29:36;;;;;;;5.35;1.13;;;11.90;99.90;;;;;;5031543;28;20400;-58
2023/10/21 00:32:04;;;;;;;2.20;0.70;;;13.90;99.90;;;;;;5030575;28;20386;-57
2023/10/21 00:34:30;;;;;;;6.50;1.00;;;13.90;99.90;;;;;;5031719;28;20101;-47
2023/10/21 00:36:56;;;;;;;5.53;0.90;;;12.90;99.90;;;;;;5030836;28;20029;-55
2023/10/21 00:39:22;;;;;;;3.58;1.42;;;13.80;99.90;;;;;;5031428;28;20032;-51
2023/10/21 00:41:47;;;;;;;5.00;0.90;;;13.70;99.90;;;;;;5031437;28;20026;-58
2023/10/21 00:44:13;;;;;;;2.35;0.75;;;13.70;99.90;;;;;;5031121;28;20488;-53
2023/10/21 00:46:43;;;;;;;3.83;1.02;;;13.60;99.90;;;;;;5030999;28;20083;-49
2023/10/21 00:49:08;;;;;;;;;;;13.60;99.90;;;;;;5031490;28;20099;-48
2023/10/21 00:51:35;;;;;;;2.05;0.80;;;13.50;99.90;;;;;;5031141;28;19947;-50
2023/10/21 00:54:01;;;;;;;3.88;0.80;;;13.50;99.90;;;;;;5030927;28;20029;-57
2023/10/21 00:56:27;;;;;;;5.70;0.98;;;13.50;99.90;;;;;;5031110;28;20079;-54
2023/10/21 00:58:53;;;;;;;5.07;1.00;;;13.40;99.90;;;;;;5031075;28;20029;-54
2023/10/21 01:01:19;;;;;;;7.80;1.17;;;13.40;99.90;;;;;;5030643;28;20043;-53
2023/10/21 01:03:45;;;;;;;6.15;1.48;;;13.40;99.90;;;;;;5030829;28;20018;-50
2023/10/21 01:06:11;;;;;;;3.97;1.35;;;13.40;99.90;;;;;;5030980;28;20032;-54
2023/10/21 01:08:41;;;;;;;8.68;1.45;;;13.30;99.90;;;;;;5030734;28;20033;-49
2023/10/21 01:11:08;;;;;;;6.97;1.58;;;13.40;99.90;;;;;;5030820;28;20108;-53
2023/10/21 01:13:33;;;;;;;8.00;1.83;;;13.30;99.90;;;;;;5030802;28;20101;-53
2023/10/21 01:15:59;;;;;;;5.15;1.23;;;13.30;99.90;;;;;;5030699;28;20096;-53
2023/10/21 01:18:29;;;;;;;5.75;1.55;;;;;;;;;;5030727;28;20070;-53
2023/10/21 01:20:54;;;;;;;;;;;13.40;99.90;;;;;;5031299;28;20068;-54
2023/10/21 01:23:20;;;;;;;3.63;1.05;;;13.60;99.90;;;;;;5030734;28;20378;-52
2023/10/21 01:25:46;;;;;;;6.05;0.95;;;13.60;99.90;;;;;;5030679;28;20041;-50
2023/10/21 01:28:12;;;;;;;7.07;1.05;;;13.60;99.90;;;;;;5030737;28;20026;-55
2023/10/21 01:30:37;;;;;;;4.70;1.13;;;12.60;99.90;;;;;;5030222;28;20096;-57
2023/10/21 01:33:03;;;;;;;3.55;0.65;;;13.60;99.90;;;;;;5029934;28;20053;-55
2023/10/21 01:35:29;;;;;;;6.15;0.85;;;14.30;99.90;;;;;;5029674;28;20034;-51
2023/10/21 01:37:54;;;;;;;3.65;0.70;;;13.60;99.90;;;;;;5029801;28;20083;-52
2023/10/21 01:40:20;;;;;;;2.63;0.40;;;13.60;99.90;;;;;;5029776;28;20032;-50
2023/10/21 01:42:46;;;;;;;5.18;0.73;;;;;;;;;;5029840;28;20395;-48
2023/10/21 01:45:12;;;;;;;0.63;0.30;;;13.90;99.90;;;;;;5029666;28;20017;-53
2023/10/21 01:47:37;;;;;;;4.68;0.73;;;13.60;99.90;;;;;;5029286;28;20440;-55
2023/10/21 01:50:08;;;;;;;1.85;0.50;;;13.50;99.90;;;;;;5031240;28;20072;-51
2023/10/21 01:52:36;;;;;;;2.45;0.70;;;13.50;99.90;;;;;;5032873;28;20037;-55
2023/10/21 01:55:03;;;;;;;6.55;1.23;;;12.50;99.90;;;;;;5033134;28;20029;-51
2023/10/21 01:57:31;;;;;;;0.52;0.35;;;14.70;99.90;;;;;;5032777;28;20040;-48
2023/10/21 01:59:57;;;;;;;2.55;0.50;;;13.70;99.90;;;;;;5032925;28;20021;-47
2023/10/21 02:02:23;;;;;;;2.20;0.40;;;13.70;99.90;;;;;;5032600;28;20079;-52
2023/10/21 02:04:48;;;;;;;0.60;0.40;;;13.60;99.90;;;;;;5032881;28;20025;-49
2023/10/21 02:07:14;;;;;;;3.08;0.60;;;13.60;99.90;;;;;;5032808;28;20029;-49
2023/10/21 02:09:40;;;;;;;2.50;0.30;;;13.70;99.90;;;;;;5032600;28;20039;-57
2023/10/21 02:12:08;;;;;;;5.32;0.50;;;13.60;99.90;;;;;;5032708;28;20469;-55
2023/10/21 02:14:34;;;;;;;3.17;0.50;;;13.60;99.90;;;;;;5032731;28;20032;-54
2023/10/21 02:16:59;;;;;;;1.85;0.57;;;13.60;99.90;;;;;;5032557;28;20040;-58
2023/10/21 02:19:25;;;;;;;7.30;0.50;;;13.70;99.90;;;;;;5032577;28;20025;-56
2023/10/21 02:21:51;;;;;;;2.13;0.80;;;13.70;99.90;;;;;;5032414;28;20087;-58
2023/10/21 02:24:16;;;;;;;2.08;0.52;;;13.70;99.90;;;;;;5032498;28;20089;-55
2023/10/21 02:26:42;;;;;;;4.38;0.75;;;14.90;99.90;;;;;;5032335;28;20037;-58
2023/10/21 02:29:07;;;;;;;1.80;0.52;;;13.40;99.90;;;;;;5032541;28;20032;-58
2023/10/21 02:31:33;;;;;;;1.85;0.82;;;13.60;99.90;;;;;;5010459;28;1089803;-50
2023/10/21 02:33:59;;;;;;;1.55;0.40;;;13.50;99.90;;;;;;5033649;28;20030;-56
2023/10/21 02:36:25;;;;;;;1.15;0.32;;;13.50;99.90;;;;;;5033628;28;20429;-55
2023/10/21 02:38:53;;;;;;;3.60;0.60;;;13.40;99.90;;;;;;5033491;28;20030;-60
2023/10/21 02:41:19;;;;;;;0.25;0.25;;;15.00;99.90;;;;;;5033477;28;20044;-54
2023/10/21 02:43:45;;;;;;;1.08;0.40;;;13.40;99.90;;;;;;5033390;28;20536;-56
2023/10/21 02:46:13;;;;;;;3.97;0.47;;;13.50;99.90;;;;;;5033140;28;20023;-58
2023/10/21 02:48:39;;;;;;;2.40;0.52;;;13.40;99.90;;;;;;5033350;28;20026;-53
2023/10/21 02:51:17;;;;;;;1.83;0.30;;;13.40;99.90;;;;;;5033130;28;20409;-56
2023/10/21 02:53:44;;;;;;;4.32;0.60;;;13.40;99.90;;;;;;5031309;28;20040;-53
2023/10/21 02:56:10;;;;;;;2.40;1.00;;;13.40;99.90;;;;;;5033003;28;20025;-57
2023/10/21 02:58:37;;;;;;;1.50;0.40;;;13.40;99.90;;;;;;5032899;28;20072;-57
2023/10/21 03:01:04;;;;;;;0.52;0.30;;;13.40;99.90;;;;;;5032400;28;20116;-54
2023/10/21 03:03:30;;;;;;;3.88;0.40;;;13.40;99.90;;;;;;5033011;28;20025;-54
2023/10/21 03:05:56;;;;;;;3.63;0.68;;;13.40;99.90;;;;;;5033017;28;20439;-52
2023/10/21 03:08:21;;;;;;;4.82;0.47;;;13.30;99.90;;;;;;5032761;28;20018;-53
2023/10/21 03:10:48;;;;;;;2.55;0.30;;;15.20;99.90;;;;;;5033145;28;20539;-57
2023/10/21 03:13:13;;;;;;;3.67;1.05;;;13.30;99.90;;;;;;5032885;28;20041;-54
2023/10/21 03:15:39;;;;;;;5.90;0.75;;;14.60;99.90;;;;;;5032442;28;20026;-50
2023/10/21 03:18:04;;;;;;;7.93;1.05;;;13.40;99.90;;;;;;5032694;28;20044;-56
2023/10/21 03:20:33;;;;;;;4.85;0.52;;;13.40;99.90;;;;;;5032641;28;20388;-54
2023/10/21 03:22:59;;;;;;;1.85;0.65;;;13.40;99.90;;;;;;5032312;28;20384;-54
2023/10/21 03:25:25;;;;;;;3.72;0.52;;;14.70;99.90;;;;;;5032822;28;20021;-53
2023/10/21 03:27:50;;;;;;;4.47;0.40;;;13.30;99.90;;;;;;5032052;28;20095;-56
2023/10/21 03:30:17;;;;;;;3.80;0.68;;;13.30;99.90;;;;;;5032618;28;20057;-54
2023/10/21 03:32:43;;;;;;;3.60;0.63;;;13.20;99.90;;;;;;5032459;28;20057;-56
2023/10/21 03:35:09;;;;;;;2.97;0.68;;;13.30;99.90;;;;;;5032201;28;20048;-52
2023/10/21 03:37:35;;;;;;;6.32;1.27;;;13.30;99.90;;;;;;5032399;28;20047;-55
2023/10/21 03:40:00;;;;;;;2.42;0.55;;;13.10;99.90;;;;;;5032343;28;20025;-48
2023/10/21 03:42:26;;;;;;;5.10;1.23;;;13.40;99.90;;;;;;5032298;28;20045;-55
2023/10/21 03:44:52;;;;;;;3.92;0.55;;;13.40;99.90;;;;;;5032328;28;20025;-51
2023/10/21 03:47:17;;;;;;;2.70;0.73;;;12.90;99.90;;;;;;5032210;28;20759;-52
2023/10/21 03:49:43;;;;;;;6.93;0.57;;;13.50;99.90;;;;;;5032174;28;20156;-59
2023/10/21 03:52:08;;;;;;;1.88;0.60;;;12.50;99.90;;;;;;5031877;28;20091;-57
2023/10/21 03:54:34;;;;;;;1.75;0.30;;;13.50;99.90;;;;;;5032182;28;20026;-58
2023/10/21 03:56:59;;;;;;;2.17;0.52;;;13.50;99.90;;;;;;5032210;28;20037;-61
2023/10/21 03:59:25;;;;;;;4.30;0.93;;;13.50;99.90;;;;;;5031865;28;20026;-59
2023/10/21 04:01:51;;;;;;;6.38;0.95;;;13.50;99.90;;;;;;5031925;28;20392;-58
2023/10/21 04:04:16;;;;;;;7.00;0.80;;;13.60;99.90;;;;;;5031809;28;20075;-60
2023/10/21 04:06:42;;;;;;;4.18;1.00;;;13.60;99.90;;;;;;5031937;28;20056;-57
2023/10/21 04:09:09;;;;;;;1.17;0.40;;;13.60;99.90;;;;;;5031773;28;20037;-58
2023/10/21 04:11:35;;;;;;;2.00;0.65;;;13.60;99.90;;;;;;5031272;28;20116;-56
2023/10/21 04:14:01;;;;;;;2.50;0.60;;;12.80;99.90;;;;;;5031565;28;20184;-61
2023/10/21 04:16:26;;;;;;;4.53;0.70;;;12.40;99.90;;;;;;5031519;28;20384;-62
2023/10/21 04:18:52;;;;;;;5.70;0.80;;;12.90;99.90;;;;;;5031611;28;20075;-67
2023/10/21 04:21:19;;;;;;;7.47;0.88;;;13.50;99.90;;;;;;5031410;28;20026;-60
2023/10/21 04:23:44;;;;;;;4.32;0.60;;;14.50;99.90;;;;;;5031720;28;20029;-59
2023/10/21 04:26:10;;;;;;;5.90;1.05;;;13.50;99.90;;;;;;5031512;28;20044;-55
2023/10/21 04:28:35;;;;;;;1.20;0.52;;;13.50;99.90;;;;;;5031322;28;20026;-62
2023/10/21 04:31:01;;;;;;;2.03;0.63;;;13.50;99.90;;;;;;5031232;28;20033;-59
2023/10/21 04:33:26;;;;;;;0.95;0.25;;;13.50;99.90;;;;;;5031011;28;20053;-61
2023/10/21 04:35:52;;;;;;;3.92;0.68;;;13.40;99.90;;;;;;5031220;28;20048;-62
2023/10/21 04:38:18;;;;;;;7.38;0.90;;;13.40;99.90;;;;;;5031263;28;20037;-58
2023/10/21 04:40:44;;;;;;;7.72;0.80;;;13.30;99.90;;;;;;5031432;28;20029;-59
2023/10/21 04:43:09;;;;;;;1.83;0.55;;;13.40;99.90;;;;;;5031065;28;20472;-58
2023/10/21 04:45:35;;;;;;;2.47;0.60;;;14.10;99.90;;;;;;5031117;28;20028;-49
2023/10/21 04:48:00;;;;;;;5.57;0.50;;;13.10;99.90;;;;;;5031203;28;20068;-57
2023/10/21 04:50:27;;;;;;;4.20;0.70;;;13.10;99.90;;;;;;5031118;28;20025;-58
2023/10/21 04:52:52;;;;;;;5.03;0.40;;;13.10;99.90;;;;;;5030985;28;20350;-59
2023/10/21 04:55:18;;;;;;;2.05;0.52;;;13.10;99.90;;;;;;5031029;28;20426;-59
2023/10/21 04:57:43;;;;;;;5.30;0.60;;;13.10;99.90;;;;;;5031159;28;20037;-59
2023/10/21 05:00:10;;;;;;;3.92;0.75;;;13.10;99.90;;;;;;5031176;28;20067;-58
2023/10/21 05:02:35;;;;;;;9.20;1.33;;;14.10;99.90;;;;;;5030777;28;20041;-60
2023/10/21 05:05:01;;;;;;;3.25;0.90;;;13.20;99.90;;;;;;5030866;28;20028;-59
2023/10/21 05:07:26;;;;;;;4.15;0.65;;;13.20;99.90;;;;;;5030611;28;20198;-54
2023/10/21 05:09:52;;;;;;;2.95;0.52;;;13.30;99.90;;;;;;5030648;28;20033;-58
2023/10/21 05:12:19;;;;;;;4.82;0.80;;;11.50;99.90;;;;;;5030771;28;20484;-55
2023/10/21 05:14:45;;;;;;;2.38;0.57;;;13.30;99.90;;;;;;5030482;28;20049;-59
2023/10/21 05:17:11;;;;;;;2.17;0.77;;;13.30;99.90;;;;;;5030375;28;20025;-59
2023/10/21 05:19:37;;;;;;;5.57;0.70;;;13.20;99.90;;;;;;5030486;28;20030;-58
2023/10/21 05:22:03;;;;;;;2.70;0.55;;;11.00;99.90;;;;;;5030802;28;20025;-60
2023/10/21 05:24:28;;;;;;;4.45;0.68;;;13.20;99.90;;;;;;5030660;28;20022;-58
2023/10/21 05:26:54;;;;;;;7.88;1.15;;;12.30;99.90;;;;;;5030326;28;20052;-58
2023/10/21 05:29:19;;;;;;;1.35;0.47;;;13.20;99.90;;;;;;5030448;28;20064;-60
2023/10/21 05:31:45;;;;;;;0.80;0.30;;;13.10;99.90;;;;;;5030227;28;20507;-59
2023/10/21 05:34:17;;;;;;;5.20;1.10;;;13.20;99.90;;;;;;5030303;28;20033;-55
2023/10/21 05:36:43;;;;;;;6.15;0.88;;;13.20;99.90;;;;;;5030200;28;20040;-58
2023/10/21 05:39:11;;;;;;;6.07;0.70;;;13.20;99.90;;;;;;5030675;28;20105;-52
2023/10/21 05:41:37;;;;;;;7.30;0.73;;;13.10;99.90;;;;;;5030440;28;20112;-55
2023/10/21 05:44:03;;;;;;;7.20;0.93;;;13.20;99.90;;;;;;5029999;28;20169;-56
2023/10/21 05:46:29;;;;;;;9.40;1.00;;;13.20;99.90;;;;;;5030309;28;20033;-59
2023/10/21 05:48:54;;;;;;;5.18;0.93;;;13.20;99.90;;;;;;5030210;28;20105;-56
2023/10/21 05:51:20;;;;;;;5.03;1.25;;;13.20;99.90;;;;;;5029992;28;20448;-53
2023/10/21 05:53:46;;;;;;;9.07;1.63;;;13.10;99.90;;;;;;5029767;28;20025;-55
2023/10/21 05:56:12;;;;;;;9.20;0.82;;;13.20;99.90;;;;;;5030229;28;20049;-57
2023/10/21 05:58:40;;;;;;;9.77;1.40;;;13.20;99.90;;;;;;5029818;28;20408;-57
2023/10/21 06:01:08;;;;;;;6.70;1.10;;;12.10;99.90;;;;;;5029981;28;20030;-56
2023/10/21 06:03:34;;;;;;;2.50;0.60;;;13.20;99.90;;;;;;5029563;28;20075;-54
2023/10/21 06:06:00;;;;;;;2.40;0.70;;;13.20;99.90;;;;;;5029830;28;20032;-58
2023/10/21 06:08:27;;;;;;;5.28;0.70;;;13.20;99.90;;;;;;5030071;28;20022;-60
2023/10/21 06:10:54;;;;;;;5.70;0.82;;;13.20;99.90;;;;;;5029943;28;20036;-49
2023/10/21 06:13:20;;;;;;;8.40;1.40;;;13.20;99.90;;;;;;5029894;28;20041;-56
2023/10/21 06:15:48;;;;;;;2.25;0.65;;;13.10;99.90;;;;;;5029943;28;20022;-56
2023/10/21 06:18:13;;;;;;;8.27;0.95;;;13.10;99.90;;;;;;5029033;28;20029;-57
2023/10/21 06:20:39;;;;;;;4.40;1.00;;;13.10;99.90;;;;;;5029944;28;20022;-54
2023/10/21 06:23:05;;;;;;;7.63;1.05;;;13.10;99.90;;;;;;5029985;28;20032;-54
2023/10/21 06:25:31;;;;;;;7.28;0.80;;;13.10;99.90;;;;;;5029878;28;20393;-56
2023/10/21 06:27:59;;;;;;;6.20;1.02;;;13.50;99.90;;;;;;5030010;28;20114;-55
2023/10/21 06:30:25;;;;;;;11.02;1.40;;;13.10;99.90;;;;;;5026066;28;20511;-55
2023/10/21 06:32:51;;;;;;;9.85;0.90;;;13.10;99.90;;;;;;5029375;28;20053;-55
2023/10/21 06:35:17;;;;;;;5.63;0.73;;;13.10;99.90;;;;;;5029804;28;20036;-55
2023/10/21 06:37:43;;;;;;;9.40;1.25;;;14.20;99.90;;;;;;5033168;28;20073;-53
2023/10/21 06:40:09;;;;;;;3.15;0.70;;;13.00;99.90;;;;;;5032008;28;20386;-56
2023/10/21 06:42:34;;;;;;;7.80;0.90;;;12.20;99.90;;;;;;5031681;28;20428;-57
2023/10/21 06:45:00;;;;;;;6.95;1.00;;;13.00;99.90;;;;;;5031382;28;20021;-56
2023/10/21 06:47:26;;;;;;;8.13;1.20;;;13.00;99.90;;;;;;5032076;28;20057;-54
2023/10/21 06:49:52;;;;;;;8.32;1.42;;;12.90;99.90;;;;;;5031674;28;20025;-52
2023/10/21 06:52:17;;;;;;;3.75;0.70;;;11.40;99.90;;;;;;5031132;28;20570;-56
2023/10/21 06:54:44;;;;;;;8.68;1.10;;;13.00;99.90;;;;;;5022668;28;20127;-56
2023/10/21 06:57:09;;;;;;;8.95;1.30;;;12.90;99.90;;;;;;5032759;28;20492;-55
2023/10/21 06:59:35;;;;;;;10.52;1.00;;;13.00;99.90;;;;;;5033071;28;20048;-58
2023/10/21 07:02:01;;;;;;;5.20;1.40;;;12.90;99.90;;;;;;5032638;28;20032;-56
2023/10/21 07:04:26;;;;;;;5.45;0.95;;;12.90;99.90;;;;;;5033135;28;20030;-56
2023/10/21 07:06:52;;;;;;;4.25;0.90;;;12.90;99.90;;;;;;5032758;28;20025;-56
2023/10/21 07:09:17;;;;;;;2.45;0.68;;;13.00;99.90;;;;;;5032483;28;20370;-58
2023/10/21 07:11:43;;;;;;;9.32;1.13;;;12.90;99.90;;;;;;5033096;28;20033;-58
2023/10/21 07:14:09;;;;;;;3.75;0.80;;;12.90;99.90;;;;;;5033238;28;20520;-57
2023/10/21 07:16:34;;;;;;;3.50;0.85;;;12.90;99.90;;;;;;5032876;28;20030;-57
2023/10/21 07:19:00;;;;;;;5.65;0.73;;;12.90;99.90;;;;;;5032998;28;20033;-55
2023/10/21 07:21:25;;;;;;;3.72;0.85;;;12.90;99.90;;;;;;5032675;28;20052;-54
2023/10/21 07:23:51;;;;;;;7.03;1.23;;;13.90;99.90;;;;;;5032992;28;20041;-58
2023/10/21 07:26:17;;;;;;;9.18;1.60;;;12.90;99.90;;;;;;5032694;28;20033;-58
2023/10/21 07:28:42;;;;;;;8.18;1.00;;;12.90;99.90;;;;;;5032914;28;20511;-59
2023/10/21 07:31:08;;;;;;;6.80;0.90;;;12.90;99.90;;;;;;5032418;28;20030;-59
2023/10/21 07:33:34;;;;;;;5.25;0.88;;;12.90;99.90;;;;;;5032354;28;20045;-58
2023/10/21 07:36:00;;;;;;;3.42;1.00;;;12.90;99.90;;;;;;5031817;28;20025;-60
2023/10/21 07:38:25;;;;;;;9.95;1.40;;;12.90;99.90;;;;;;5032252;28;20481;-62
2023/10/21 07:40:51;;;;;;;5.05;0.88;;;12.90;99.90;;;;;;5032633;28;20022;-58
2023/10/21 07:43:17;;;;;;;6.07;0.65;;;12.90;99.90;;;;;;5032174;28;20025;-59
2023/10/21 07:45:43;;;;;;;7.53;0.93;;;12.90;99.90;;;;;;5032370;28;20025;-57
2023/10/21 07:48:10;;;;;;;5.13;0.45;;;12.90;99.90;;;;;;5030960;28;20026;-49
2023/10/21 07:50:35;;;;;;;4.88;0.80;;;12.90;99.90;;;;;;5032352;28;20545;-57
2023/10/21 07:53:01;;;;;;;5.18;0.70;;;12.80;99.90;;;;;;5032129;28;20128;-56
2023/10/21 07:55:28;;;;;;;3.03;0.75;;;12.90;99.90;;;;;;5032421;28;20022;-53
2023/10/21 07:57:54;;;;;;;3.88;0.80;;;12.90;99.90;;;;;;5032113;28;20499;-53
2023/10/21 08:00:20;;;;;;;3.22;0.52;;;12.90;99.90;;;;;;5032000;28;20033;-53
2023/10/21 08:02:45;;;;;;;6.93;0.75;;;12.90;99.90;;;;;;5032318;28;20026;-58
2023/10/21 08:05:13;;;;;;;4.20;0.80;;;12.90;99.90;;;;;;5032604;28;20053;-55
2023/10/21 08:07:38;;;;;;;3.03;0.80;;;12.90;99.90;;;;;;5031828;28;20380;-52
2023/10/21 08:10:05;;;;;;;8.23;1.13;;;12.90;99.90;;;;;;5032070;28;20097;-54
2023/10/21 08:12:32;;;;;;;4.93;0.93;;;12.90;99.90;;;;;;5031935;28;20048;-59
2023/10/21 08:14:58;;;;;;;4.10;0.70;;;13.00;99.90;;;;;;5031893;28;20083;-59
2023/10/21 08:17:24;;;;;;;6.50;1.13;;;13.00;99.90;;;;;;5032017;28;20029;-53
2023/10/21 08:19:50;;;;;;;4.15;0.95;;;13.00;99.90;;;;;;5031815;28;20017;-55
2023/10/21 08:22:15;;;;;;;5.03;1.02;;;13.10;99.90;;;;;;5031882;28;20033;-56
2023/10/21 08:24:41;;;;;;;5.22;0.57;;;13.00;99.90;;;;;;5031623;28;20108;-54
2023/10/21 08:27:07;;;;;;;3.58;0.60;;;13.10;99.90;;;;;;5031758;28;20032;-51
2023/10/21 08:29:32;;;;;;;3.45;0.40;;;13.10;99.90;;;;;;5031846;28;20025;-52
2023/10/21 08:31:58;;;;;;;2.13;0.60;;;13.10;99.90;;;;;;5031263;28;20049;-54
2023/10/21 08:34:24;;;;;;;3.83;0.73;;;13.10;99.90;;;;;;5031500;28;20025;-54
2023/10/21 08:36:49;;;;;;;2.35;0.70;;;13.20;99.90;;;;;;5031428;28;20113;-55
2023/10/21 08:39:15;;;;;;;4.72;0.70;;;13.20;99.90;;;;;;5031469;28;20057;-58
2023/10/21 08:41:41;;;;;;;5.13;0.95;;;13.20;99.90;;;;;;5031276;28;20030;-56
2023/10/21 08:44:08;;;;;;;2.58;0.75;;;13.20;99.90;;;;;;5031392;28;20065;-55
2023/10/21 08:46:34;;;;;;;8.93;0.80;;;13.20;99.90;;;;;;5031198;28;20029;-60
2023/10/21 08:49:04;;;;;;;8.75;0.85;;;13.30;99.90;;;;;;5031385;28;20025;-55
2023/10/21 08:51:32;;;;;;;4.47;0.50;;;13.30;99.90;;;;;;5031159;28;20429;-54
2023/10/21 08:54:05;;;;;;;4.15;0.55;;;13.30;99.90;;;;;;5031173;28;20108;-57
2023/10/21 08:56:33;;;;;;;7.65;0.68;;;13.40;99.90;;;;;;5031158;28;20033;-51
2023/10/21 08:59:00;;;;;;;1.67;0.35;;;13.40;99.90;;;;;;5030960;28;20025;-50
2023/10/21 09:01:26;;;;;;;1.33;0.65;;;13.40;99.90;;;;;;5029638;28;20026;-55
2023/10/21 09:03:52;;;;;;;2.88;1.10;;;13.50;99.90;;;;;;5031054;28;20048;-54
2023/10/21 09:06:18;;;;;;;3.60;0.68;;;11.20;99.90;;;;;;5030971;28;20022;-49
2023/10/21 09:08:45;;;;;;;1.77;0.65;;;13.50;99.90;;;;;;5031014;28;20033;-49
2023/10/21 09:11:18;;;;;;;4.93;0.63;;;13.60;99.90;;;;;;5031091;28;20428;-53
2023/10/21 09:13:44;;;;;;;2.53;0.40;;;13.70;99.90;;;;;;5031009;28;20045;-49
2023/10/21 09:16:24;;;;;;;1.58;0.30;;;13.70;99.90;;;;;;5031023;28;20025;-55
2023/10/21 09:19:00;;;;;;;1.77;0.55;;;13.70;99.90;;;;;;5030779;28;20021;-50
2023/10/21 09:21:45;;;;;;;1.50;0.75;;;13.80;99.90;;;;;;5030699;28;20025;-51
2023/10/21 09:24:12;;;;;;;5.32;0.73;;;13.80;99.90;;;;;;5030837;28;20022;-50
2023/10/21 09:26:40;;;;;;;1.83;0.47;;;13.80;99.90;;;;;;5030595;28;20022;-54
2023/10/21 09:29:08;;;;;;;3.75;0.60;;;13.90;99.90;;;;;;5030711;28;20037;-54
2023/10/21 09:31:53;;;;;;;8.10;1.25;;;14.10;99.90;;;;;;5030594;28;20029;-50
2023/10/21 09:34:30;;;;;;;2.67;0.55;;;14.10;99.90;;;;;;5030998;28;20034;-51
2023/10/21 09:36:58;;;;;;;9.85;1.10;;;14.20;99.90;;;;;;5030631;28;20025;-55
2023/10/21 09:39:26;;;;;;;11.23;1.35;;;14.20;99.90;;;;;;5030701;28;20029;-49
2023/10/21 09:41:52;;;;;;;9.02;1.42;;;14.20;99.90;;;;;;5030529;28;20033;-51
2023/10/21 09:44:18;;;;;;;5.50;0.85;;;14.40;99.90;;;;;;5030482;28;20013;-47
2023/10/21 09:46:45;;;;;;;2.60;0.75;;;14.60;99.90;;;;;;5030362;28;20038;-54
2023/10/21 09:49:15;;;;;;;5.32;1.02;;;14.80;99.90;;;;;;5030623;28;20025;-48
2023/10/21 09:52:04;;;;;;;6.30;0.77;;;14.90;99.90;;;;;;5030696;28;20026;-53
2023/10/21 09:54:40;;;;;;;;;;;14.80;99.90;;;;;;5019408;28;20053;-47
2023/10/21 09:57:08;;;;;;;5.13;0.60;;;14.80;99.90;;;;;;5030587;28;19913;-50
2023/10/21 09:59:35;;;;;;;3.55;0.40;;;14.80;99.90;;;;;;5030488;28;20049;-51
2023/10/21 10:02:01;;;;;;;2.33;0.63;;;14.70;99.90;;;;;;5030465;28;20018;-48
2023/10/21 10:04:27;;;;;;;5.18;0.68;;;14.70;99.90;;;;;;5030170;28;20037;-50
2023/10/21 10:06:58;;;;;;;2.38;0.35;;;14.60;99.90;;;;;;5030413;28;20059;-52
2023/10/21 10:09:27;;;;;;;4.30;0.88;;;15.50;99.90;;;;;;5030168;28;20108;-51
2023/10/21 10:11:58;;;;;;;10.90;0.95;;;14.60;99.90;;;;;;5033285;28;20049;-52
2023/10/21 10:14:25;;;;;;;2.67;0.63;;;14.60;99.90;;;;;;5034160;28;20104;-54
2023/10/21 10:16:51;;;;;;;10.35;1.73;;;14.60;99.90;;;;;;5034285;28;20028;-49
2023/10/21 10:19:38;;;;;;;4.75;0.90;;;14.80;99.90;;;;;;5034286;28;20028;-49
2023/10/21 10:22:18;;;;;;;7.28;1.40;;;15.00;99.90;;;;;;5034416;28;20083;-58
2023/10/21 10:24:55;;;;;;;1.77;0.63;;;15.20;99.90;;;;;;5034021;28;20025;-54
2023/10/21 10:27:26;;;;;;;8.63;0.95;;;15.20;99.90;;;;;;5033939;28;20029;-55
2023/10/21 10:29:52;;;;;;;3.53;0.80;;;15.10;99.90;;;;;;5033781;28;20017;-56
2023/10/21 10:32:20;;;;;;;3.30;1.35;;;15.00;99.90;;;;;;5033624;28;20052;-58
2023/10/21 10:34:52;;;;;;;10.65;1.27;;;14.90;99.90;;;;;;5033844;28;20128;-57
2023/10/21 10:37:29;;;;;;;4.05;0.60;;;14.90;99.90;;;;;;5020827;28;20096;-54
2023/10/21 10:39:55;;;;;;;1.05;0.50;;;14.60;99.90;;;;;;5033659;28;20029;-57
2023/10/21 10:42:28;;;;;;;6.68;0.70;;;14.60;99.90;;;;;;5033689;28;20021;-55
2023/10/21 10:44:55;;;;;;;0.85;0.30;;;14.50;99.90;;;;;;5033726;28;20084;-56
2023/10/21 10:47:22;;;;;;;3.22;0.65;;;13.70;99.90;;;;;;5033725;28;20108;-58
2023/10/21 10:50:19;;;;;;;6.30;0.60;;;14.30;99.90;;;;;;5033675;28;20029;-54
2023/10/21 10:52:46;;;;;;;2.33;0.38;;;14.30;99.90;;;;;;5033320;28;20037;-52
2023/10/21 10:55:14;;;;;;;1.83;0.50;;;14.20;99.90;;;;;;5022696;28;20022;-59
2023/10/21 10:57:43;;;;;;;4.15;0.60;;;14.20;99.90;;;;;;5029386;28;20069;-56
2023/10/21 11:00:10;;;;;;;4.63;0.50;;;14.20;99.90;;;;;;5026370;28;20437;-53
2023/10/21 11:02:46;;;;;;;2.25;0.57;;;14.20;99.90;;;;;;5029846;28;20045;-56
2023/10/21 11:05:22;;;;;;;1.05;0.50;;;14.60;99.90;;;;;;5032982;28;20051;-54
2023/10/21 11:07:50;;;;;;;4.57;0.95;;;15.50;99.90;;;;;;5029149;28;20025;-50
2023/10/21 11:10:23;;;;;;;1.02;0.80;;;15.60;99.90;;;;;;5025581;28;20060;-54
2023/10/21 11:12:52;;;;;;;0.30;0.28;;;15.40;99.90;;;;;;5028381;28;20034;-55
2023/10/21 11:15:19;;;;;;;4.25;0.90;;;15.20;99.90;;;;;;5024563;28;20431;-57
2023/10/21 11:17:51;;;;;;;4.63;0.55;;;15.50;99.90;;;;;;5032975;28;20033;-53
2023/10/21 11:20:18;;;;;;;7.32;0.70;;;15.60;99.90;;;;;;5032812;28;20477;-55
2023/10/21 11:22:44;;;;;;;4.40;0.80;;;15.40;99.90;;;;;;5032440;28;20500;-55
2023/10/21 11:25:10;;;;;;;4.63;0.60;;;15.40;99.90;;;;;;5026619;28;20014;-58
2023/10/21 11:27:38;;;;;;;1.05;0.45;;;15.40;99.90;;;;;;5026144;28;20099;-53
2023/10/21 11:30:07;;;;;;;4.90;0.70;;;15.40;99.90;;;;;;5025195;28;20373;-52
2023/10/21 11:32:34;;;;;;;1.55;0.40;;;15.30;99.90;;;;;;5026875;28;20708;-53
2023/10/21 11:35:10;;;;;;;2.00;0.70;;;15.10;99.90;;;;;;5014837;28;20444;-52
2023/10/21 11:37:38;;;;;;;5.20;0.65;;;14.90;99.90;;;;;;5023228;28;20029;-53
2023/10/21 11:40:05;;;;;;;6.20;0.98;;;14.90;99.90;;;;;;5020188;28;20026;-56
2023/10/21 11:42:32;;;;;;;6.03;0.63;;;14.90;99.90;;;;;;5020367;28;20072;-59
2023/10/21 11:45:00;;;;;;;2.97;0.65;;;14.80;99.90;;;;;;5019116;28;20025;-55
2023/10/21 11:47:28;;;;;;;5.72;0.82;;;14.80;99.90;;;;;;5023325;28;20124;-50
2023/10/21 11:49:55;;;;;;;1.33;0.32;;;14.70;99.90;;;;;;5015313;28;20045;-57
2023/10/21 11:52:25;;;;;;;2.00;0.68;;;13.90;99.90;;;;;;5015294;28;20084;-52
2023/10/21 12:06:16;;;;;;;0.95;0.40;;;15.00;99.90;;;;;;5029640;28;20040;-56
2023/10/21 12:22:19;;;;;;;5.57;0.50;;;15.20;99.90;;;;;;5032056;28;20035;-55
2023/10/21 12:25:40;;;;;;;4.35;0.45;;;15.10;99.90;;;;;;5018289;28;20116;-57
2023/10/21 12:33:04;;;;;;;5.18;0.88;;;15.90;99.90;;;;;;5031093;28;20496;-50
2023/10/21 12:41:51;;;;;;;1.17;0.55;;;15.90;99.90;;;;;;5027739;28;20079;-53
2023/10/21 12:43:40;;;;;;;0.75;0.30;;;15.90;99.90;;;;;;5011562;28;20120;-54
2023/10/21 12:46:17;;;;;;;4.47;0.73;;;15.90;99.90;;;;;;5023922;28;20064;-56
2023/10/21 12:48:51;;;;;;;6.93;0.60;;;16.00;99.90;;;;;;5021191;28;20029;-57
2023/10/21 12:51:19;;;;;;;1.00;0.60;;;15.70;99.90;;;;;;5018442;28;20030;-53
2023/10/21 12:53:45;;;;;;;5.38;0.95;;;17.20;99.90;;;;;;5017870;28;20095;-56
2023/10/21 12:56:10;;;;;;;5.07;1.08;;;15.40;99.90;;;;;;5015961;28;20021;-55
2023/10/21 12:58:36;;;;;;;4.53;0.70;;;15.30;99.90;;;;;;5013480;28;20029;-56
2023/10/21 13:01:04;;;;;;;2.88;0.57;;;15.60;99.90;;;;;;5024584;28;20022;-56
2023/10/21 13:03:31;;;;;;;5.40;0.70;;;16.20;99.90;;;;;;5028220;28;20029;-58
2023/10/21 13:05:57;;;;;;;2.53;0.65;;;16.60;99.90;;;;;;5029992;28;20025;-50
2023/10/21 13:08:22;;;;;;;2.47;0.55;;;17.00;99.90;;;;;;5029283;28;20087;-54
2023/10/21 13:10:48;;;;;;;4.63;0.50;;;16.80;99.90;;;;;;5026789;28;20076;-58
2023/10/21 13:13:17;;;;;;;4.85;0.50;;;16.50;99.90;;;;;;5025647;28;20076;-53
2023/10/21 13:15:43;;;;;;;5.28;1.60;;;16.20;99.90;;;;;;5023896;28;20037;-56
2023/10/21 13:18:09;;;;;;;3.95;0.68;;;16.10;99.90;;;;;;5021927;28;20451;-52
2023/10/21 13:20:35;;;;;;;2.75;0.45;;;16.20;99.90;;;;;;5021312;28;20026;-57
2023/10/21 13:23:01;;;;;;;0.98;0.45;;;16.40;99.90;;;;;;5017678;28;20508;-54